sensor_id;sensor_type;location;lat;lon;timestamp;P1;durP1;ratioP1;P2;durP2;ratioP2
15968;SDS011;8085;53.472;9.794;2023-11-19T00:00:09;1.40;;;1.00;;
15968;SDS011;8085;53.472;9.794;2023-11-19T00:02:37;1.13;;;0.82;;
15968;SDS011;8085;53.472;9.794;2023-11-19T00:05:06;0.93;;;0.70;;
15968;SDS011;8085;53.472;9.794;2023-11-19T00:07:35;0.65;;;0.63;;
15968;SDS011;8085;53.472;9.794;2023-11-19T00:10:02;2.13;;;0.75;;
15968;SDS011;8085;53.472;9.794;2023-11-19T00:12:32;1.17;;;0.63;;
15968;SDS011;8085;53.472;9.794;2023-11-19T00:14:59;0.82;;;0.63;;
15968;SDS011;8085;53.472;9.794;2023-11-19T00:17:25;2.00;;;0.68;;
15968;SDS011;8085;53.472;9.794;2023-11-19T00:19:56;0.95;;;0.68;;
15968;SDS011;8085;53.472;9.794;2023-11-19T00:22:24;0.90;;;0.60;;
15968;SDS011;8085;53.472;9.794;2023-11-19T00:24:51;1.65;;;0.50;;
15968;SDS011;8085;53.472;9.794;2023-11-19T00:27:18;1.05;;;0.60;;
15968;SDS011;8085;53.472;9.794;2023-11-19T00:29:44;1.08;;;0.68;;
15968;SDS011;8085;53.472;9.794;2023-11-19T00:32:11;0.98;;;0.75;;
15968;SDS011;8085;53.472;9.794;2023-11-19T00:34:38;1.13;;;0.70;;
15968;SDS011;8085;53.472;9.794;2023-11-19T00:37:05;1.27;;;0.60;;
15968;SDS011;8085;53.472;9.794;2023-11-19T00:39:36;0.70;;;0.50;;
15968;SDS011;8085;53.472;9.794;2023-11-19T00:42:03;1.27;;;0.75;;
15968;SDS011;8085;53.472;9.794;2023-11-19T00:44:31;0.50;;;0.40;;
15968;SDS011;8085;53.472;9.794;2023-11-19T00:46:58;1.23;;;0.68;;
15968;SDS011;8085;53.472;9.794;2023-11-19T00:49:25;0.95;;;0.70;;
15968;SDS011;8085;53.472;9.794;2023-11-19T00:51:52;1.98;;;0.73;;
15968;SDS011;8085;53.472;9.794;2023-11-19T00:54:19;0.82;;;0.60;;
15968;SDS011;8085;53.472;9.794;2023-11-19T00:59:18;0.60;;;0.50;;
15968;SDS011;8085;53.472;9.794;2023-11-19T01:01:45;0.40;;;0.40;;
15968;SDS011;8085;53.472;9.794;2023-11-19T01:04:13;0.90;;;0.60;;
15968;SDS011;8085;53.472;9.794;2023-11-19T01:06:40;0.93;;;0.50;;
15968;SDS011;8085;53.472;9.794;2023-11-19T01:09:07;1.13;;;0.60;;
15968;SDS011;8085;53.472;9.794;2023-11-19T01:11:35;0.50;;;0.40;;
15968;SDS011;8085;53.472;9.794;2023-11-19T01:14:03;0.60;;;0.40;;
15968;SDS011;8085;53.472;9.794;2023-11-19T01:16:30;0.75;;;0.52;;
15968;SDS011;8085;53.472;9.794;2023-11-19T01:18:57;0.43;;;0.30;;
15968;SDS011;8085;53.472;9.794;2023-11-19T01:21:23;0.60;;;0.50;;
15968;SDS011;8085;53.472;9.794;2023-11-19T01:23:51;1.00;;;0.30;;
15968;SDS011;8085;53.472;9.794;2023-11-19T01:26:18;0.63;;;0.50;;
15968;SDS011;8085;53.472;9.794;2023-11-19T01:28:45;0.50;;;0.40;;
15968;SDS011;8085;53.472;9.794;2023-11-19T01:31:14;0.50;;;0.45;;
15968;SDS011;8085;53.472;9.794;2023-11-19T01:33:41;0.43;;;0.30;;
15968;SDS011;8085;53.472;9.794;2023-11-19T01:36:08;0.30;;;0.22;;
15968;SDS011;8085;53.472;9.794;2023-11-19T01:38:39;0.88;;;0.65;;
15968;SDS011;8085;53.472;9.794;2023-11-19T01:41:05;0.38;;;0.30;;
15968;SDS011;8085;53.472;9.794;2023-11-19T01:43:33;0.20;;;0.20;;
15968;SDS011;8085;53.472;9.794;2023-11-19T01:46:00;0.20;;;0.20;;
15968;SDS011;8085;53.472;9.794;2023-11-19T01:48:29;0.13;;;0.13;;
15968;SDS011;8085;53.472;9.794;2023-11-19T01:50:57;0.20;;;0.20;;
15968;SDS011;8085;53.472;9.794;2023-11-19T01:53:26;0.20;;;0.20;;
15968;SDS011;8085;53.472;9.794;2023-11-19T01:55:54;1.50;;;0.20;;
15968;SDS011;8085;53.472;9.794;2023-11-19T01:58:22;0.20;;;0.20;;
15968;SDS011;8085;53.472;9.794;2023-11-19T02:00:49;2.28;;;0.22;;
15968;SDS011;8085;53.472;9.794;2023-11-19T02:03:16;0.30;;;0.20;;
15968;SDS011;8085;53.472;9.794;2023-11-19T02:05:45;0.50;;;0.20;;
15968;SDS011;8085;53.472;9.794;2023-11-19T02:08:16;0.17;;;0.17;;
15968;SDS011;8085;53.472;9.794;2023-11-19T02:10:43;1.48;;;0.30;;
15968;SDS011;8085;53.472;9.794;2023-11-19T02:13:10;0.70;;;0.30;;
15968;SDS011;8085;53.472;9.794;2023-11-19T02:15:38;0.20;;;0.20;;
15968;SDS011;8085;53.472;9.794;2023-11-19T02:18:19;0.45;;;0.30;;
15968;SDS011;8085;53.472;9.794;2023-11-19T02:20:48;0.20;;;0.20;;
15968;SDS011;8085;53.472;9.794;2023-11-19T02:23:16;0.30;;;0.30;;
15968;SDS011;8085;53.472;9.794;2023-11-19T02:25:47;0.20;;;0.20;;
15968;SDS011;8085;53.472;9.794;2023-11-19T02:28:22;0.50;;;0.30;;
15968;SDS011;8085;53.472;9.794;2023-11-19T02:30:49;1.00;;;0.45;;
15968;SDS011;8085;53.472;9.794;2023-11-19T02:33:16;0.40;;;0.40;;
15968;SDS011;8085;53.472;9.794;2023-11-19T02:35:43;0.60;;;0.40;;
15968;SDS011;8085;53.472;9.794;2023-11-19T02:38:11;0.60;;;0.60;;
15968;SDS011;8085;53.472;9.794;2023-11-19T02:40:39;0.63;;;0.52;;
15968;SDS011;8085;53.472;9.794;2023-11-19T02:43:06;1.30;;;0.70;;
15968;SDS011;8085;53.472;9.794;2023-11-19T02:45:35;1.88;;;0.82;;
15968;SDS011;8085;53.472;9.794;2023-11-19T02:48:02;2.65;;;0.93;;
15968;SDS011;8085;53.472;9.794;2023-11-19T02:50:31;1.77;;;1.10;;
15968;SDS011;8085;53.472;9.794;2023-11-19T02:52:58;1.75;;;1.17;;
15968;SDS011;8085;53.472;9.794;2023-11-19T02:55:26;2.85;;;1.65;;
15968;SDS011;8085;53.472;9.794;2023-11-19T02:58:01;1.60;;;1.40;;
15968;SDS011;8085;53.472;9.794;2023-11-19T03:00:34;2.92;;;1.33;;
15968;SDS011;8085;53.472;9.794;2023-11-19T03:03:07;2.50;;;1.98;;
15968;SDS011;8085;53.472;9.794;2023-11-19T03:05:42;2.28;;;2.08;;
15968;SDS011;8085;53.472;9.794;2023-11-19T03:08:11;1.95;;;1.75;;
15968;SDS011;8085;53.472;9.794;2023-11-19T03:10:38;2.10;;;1.90;;
15968;SDS011;8085;53.472;9.794;2023-11-19T03:13:05;3.03;;;2.50;;
15968;SDS011;8085;53.472;9.794;2023-11-19T03:15:38;2.42;;;2.08;;
15968;SDS011;8085;53.472;9.794;2023-11-19T03:18:05;2.92;;;2.33;;
15968;SDS011;8085;53.472;9.794;2023-11-19T03:20:32;2.40;;;2.05;;
15968;SDS011;8085;53.472;9.794;2023-11-19T03:22:59;2.97;;;2.47;;
15968;SDS011;8085;53.472;9.794;2023-11-19T03:25:26;3.40;;;2.90;;
15968;SDS011;8085;53.472;9.794;2023-11-19T03:27:58;3.70;;;2.85;;
15968;SDS011;8085;53.472;9.794;2023-11-19T03:30:25;2.80;;;2.20;;
15968;SDS011;8085;53.472;9.794;2023-11-19T03:32:54;3.45;;;2.55;;
15968;SDS011;8085;53.472;9.794;2023-11-19T03:35:21;3.20;;;2.63;;
15968;SDS011;8085;53.472;9.794;2023-11-19T03:37:48;4.43;;;2.83;;
15968;SDS011;8085;53.472;9.794;2023-11-19T03:40:16;5.03;;;3.33;;
15968;SDS011;8085;53.472;9.794;2023-11-19T03:42:44;4.97;;;3.20;;
15968;SDS011;8085;53.472;9.794;2023-11-19T03:45:11;6.20;;;3.38;;
15968;SDS011;8085;53.472;9.794;2023-11-19T03:47:43;6.05;;;3.35;;
15968;SDS011;8085;53.472;9.794;2023-11-19T03:50:14;7.93;;;4.07;;
15968;SDS011;8085;53.472;9.794;2023-11-19T03:52:41;10.13;;;4.20;;
15968;SDS011;8085;53.472;9.794;2023-11-19T03:55:08;7.90;;;4.00;;
15968;SDS011;8085;53.472;9.794;2023-11-19T03:57:38;10.30;;;4.55;;
15968;SDS011;8085;53.472;9.794;2023-11-19T04:00:05;8.52;;;4.45;;
15968;SDS011;8085;53.472;9.794;2023-11-19T04:02:35;10.05;;;4.38;;
15968;SDS011;8085;53.472;9.794;2023-11-19T04:05:04;8.90;;;5.30;;
15968;SDS011;8085;53.472;9.794;2023-11-19T04:07:34;11.07;;;5.07;;
15968;SDS011;8085;53.472;9.794;2023-11-19T04:10:01;12.43;;;5.60;;
15968;SDS011;8085;53.472;9.794;2023-11-19T04:12:28;14.00;;;6.60;;
15968;SDS011;8085;53.472;9.794;2023-11-19T04:14:58;14.05;;;6.40;;
15968;SDS011;8085;53.472;9.794;2023-11-19T04:17:27;13.98;;;6.45;;
15968;SDS011;8085;53.472;9.794;2023-11-19T04:19:58;18.02;;;6.68;;
15968;SDS011;8085;53.472;9.794;2023-11-19T04:22:29;20.65;;;6.97;;
15968;SDS011;8085;53.472;9.794;2023-11-19T04:24:57;15.63;;;7.80;;
15968;SDS011;8085;53.472;9.794;2023-11-19T04:27:27;21.83;;;8.85;;
15968;SDS011;8085;53.472;9.794;2023-11-19T04:29:55;22.10;;;8.60;;
15968;SDS011;8085;53.472;9.794;2023-11-19T04:32:22;24.60;;;9.43;;
15968;SDS011;8085;53.472;9.794;2023-11-19T04:34:52;26.15;;;9.60;;
15968;SDS011;8085;53.472;9.794;2023-11-19T04:37:21;29.30;;;10.25;;
15968;SDS011;8085;53.472;9.794;2023-11-19T04:39:48;27.92;;;9.98;;
15968;SDS011;8085;53.472;9.794;2023-11-19T04:42:20;37.08;;;11.02;;
15968;SDS011;8085;53.472;9.794;2023-11-19T04:44:50;37.53;;;11.52;;
15968;SDS011;8085;53.472;9.794;2023-11-19T04:47:17;30.70;;;10.82;;
15968;SDS011;8085;53.472;9.794;2023-11-19T04:49:46;34.75;;;11.63;;
15968;SDS011;8085;53.472;9.794;2023-11-19T04:52:16;38.50;;;12.02;;
15968;SDS011;8085;53.472;9.794;2023-11-19T04:54:43;31.85;;;10.95;;
15968;SDS011;8085;53.472;9.794;2023-11-19T04:57:10;33.10;;;11.50;;
15968;SDS011;8085;53.472;9.794;2023-11-19T04:59:39;34.80;;;12.02;;
15968;SDS011;8085;53.472;9.794;2023-11-19T05:02:06;33.53;;;12.02;;
15968;SDS011;8085;53.472;9.794;2023-11-19T05:04:34;36.83;;;12.15;;
15968;SDS011;8085;53.472;9.794;2023-11-19T05:07:03;35.20;;;11.48;;
15968;SDS011;8085;53.472;9.794;2023-11-19T05:09:30;39.35;;;13.43;;
15968;SDS011;8085;53.472;9.794;2023-11-19T05:11:57;47.05;;;13.45;;
15968;SDS011;8085;53.472;9.794;2023-11-19T05:14:24;45.50;;;13.68;;
15968;SDS011;8085;53.472;9.794;2023-11-19T05:16:52;50.70;;;14.02;;
15968;SDS011;8085;53.472;9.794;2023-11-19T05:19:19;44.05;;;13.55;;
15968;SDS011;8085;53.472;9.794;2023-11-19T05:21:46;55.67;;;15.15;;
15968;SDS011;8085;53.472;9.794;2023-11-19T05:24:17;45.90;;;13.80;;
15968;SDS011;8085;53.472;9.794;2023-11-19T05:26:44;52.50;;;12.98;;
15968;SDS011;8085;53.472;9.794;2023-11-19T05:29:15;48.63;;;13.93;;
15968;SDS011;8085;53.472;9.794;2023-11-19T05:31:45;53.50;;;13.80;;
15968;SDS011;8085;53.472;9.794;2023-11-19T05:34:15;51.53;;;12.93;;
15968;SDS011;8085;53.472;9.794;2023-11-19T05:36:45;47.22;;;14.30;;
15968;SDS011;8085;53.472;9.794;2023-11-19T05:39:12;43.30;;;13.00;;
15968;SDS011;8085;53.472;9.794;2023-11-19T05:41:41;45.85;;;13.68;;
15968;SDS011;8085;53.472;9.794;2023-11-19T05:44:08;43.45;;;12.65;;
15968;SDS011;8085;53.472;9.794;2023-11-19T05:46:38;49.40;;;12.63;;
15968;SDS011;8085;53.472;9.794;2023-11-19T05:49:07;42.38;;;13.80;;
15968;SDS011;8085;53.472;9.794;2023-11-19T05:51:37;43.65;;;12.48;;
15968;SDS011;8085;53.472;9.794;2023-11-19T05:54:05;50.38;;;12.73;;
15968;SDS011;8085;53.472;9.794;2023-11-19T05:56:33;44.72;;;12.63;;
15968;SDS011;8085;53.472;9.794;2023-11-19T05:59:00;49.35;;;12.77;;
15968;SDS011;8085;53.472;9.794;2023-11-19T06:01:28;41.50;;;11.00;;
15968;SDS011;8085;53.472;9.794;2023-11-19T06:03:55;45.67;;;11.98;;
15968;SDS011;8085;53.472;9.794;2023-11-19T06:06:22;46.85;;;11.73;;
15968;SDS011;8085;53.472;9.794;2023-11-19T06:08:50;44.90;;;11.13;;
15968;SDS011;8085;53.472;9.794;2023-11-19T06:11:17;40.63;;;10.60;;
15968;SDS011;8085;53.472;9.794;2023-11-19T06:13:45;43.72;;;10.90;;
15968;SDS011;8085;53.472;9.794;2023-11-19T06:16:13;44.08;;;11.50;;
15968;SDS011;8085;53.472;9.794;2023-11-19T06:18:39;40.08;;;10.40;;
15968;SDS011;8085;53.472;9.794;2023-11-19T06:21:09;37.58;;;9.90;;
15968;SDS011;8085;53.472;9.794;2023-11-19T06:23:36;37.33;;;10.55;;
15968;SDS011;8085;53.472;9.794;2023-11-19T06:26:04;44.03;;;10.25;;
15968;SDS011;8085;53.472;9.794;2023-11-19T06:28:31;44.20;;;10.30;;
15968;SDS011;8085;53.472;9.794;2023-11-19T06:30:58;42.70;;;10.20;;
15968;SDS011;8085;53.472;9.794;2023-11-19T06:33:25;38.35;;;10.05;;
15968;SDS011;8085;53.472;9.794;2023-11-19T06:35:53;46.03;;;10.73;;
15968;SDS011;8085;53.472;9.794;2023-11-19T06:38:19;33.22;;;9.05;;
15968;SDS011;8085;53.472;9.794;2023-11-19T06:40:46;39.17;;;8.30;;
15968;SDS011;8085;53.472;9.794;2023-11-19T06:43:15;33.83;;;8.60;;
15968;SDS011;8085;53.472;9.794;2023-11-19T06:45:41;27.73;;;7.32;;
15968;SDS011;8085;53.472;9.794;2023-11-19T06:48:08;29.05;;;7.57;;
15968;SDS011;8085;53.472;9.794;2023-11-19T06:50:36;41.28;;;8.45;;
15968;SDS011;8085;53.472;9.794;2023-11-19T06:53:03;38.95;;;8.52;;
15968;SDS011;8085;53.472;9.794;2023-11-19T06:55:31;30.95;;;8.60;;
15968;SDS011;8085;53.472;9.794;2023-11-19T06:57:59;31.58;;;8.35;;
15968;SDS011;8085;53.472;9.794;2023-11-19T07:00:28;29.33;;;8.82;;
15968;SDS011;8085;53.472;9.794;2023-11-19T07:02:58;38.03;;;8.80;;
15968;SDS011;8085;53.472;9.794;2023-11-19T07:05:25;34.70;;;7.97;;
15968;SDS011;8085;53.472;9.794;2023-11-19T07:07:53;36.33;;;7.40;;
15968;SDS011;8085;53.472;9.794;2023-11-19T07:10:20;33.30;;;6.97;;
15968;SDS011;8085;53.472;9.794;2023-11-19T07:12:47;28.23;;;7.28;;
15968;SDS011;8085;53.472;9.794;2023-11-19T07:15:15;27.77;;;6.80;;
15968;SDS011;8085;53.472;9.794;2023-11-19T07:17:45;25.67;;;6.55;;
15968;SDS011;8085;53.472;9.794;2023-11-19T07:20:13;36.50;;;7.25;;
15968;SDS011;8085;53.472;9.794;2023-11-19T07:22:42;33.72;;;7.20;;
15968;SDS011;8085;53.472;9.794;2023-11-19T07:25:10;26.10;;;6.47;;
15968;SDS011;8085;53.472;9.794;2023-11-19T07:27:38;25.92;;;6.57;;
15968;SDS011;8085;53.472;9.794;2023-11-19T07:30:06;35.72;;;6.88;;
15968;SDS011;8085;53.472;9.794;2023-11-19T07:32:33;27.05;;;6.97;;
15968;SDS011;8085;53.472;9.794;2023-11-19T07:35:01;37.47;;;6.75;;
15968;SDS011;8085;53.472;9.794;2023-11-19T07:37:29;38.28;;;6.38;;
15968;SDS011;8085;53.472;9.794;2023-11-19T07:39:56;23.70;;;5.22;;
15968;SDS011;8085;53.472;9.794;2023-11-19T07:42:23;34.50;;;5.22;;
15968;SDS011;8085;53.472;9.794;2023-11-19T07:44:50;33.55;;;5.28;;
15968;SDS011;8085;53.472;9.794;2023-11-19T07:47:16;37.58;;;4.50;;
15968;SDS011;8085;53.472;9.794;2023-11-19T07:49:43;36.60;;;4.78;;
15968;SDS011;8085;53.472;9.794;2023-11-19T07:52:12;34.70;;;4.63;;
15968;SDS011;8085;53.472;9.794;2023-11-19T07:54:39;32.33;;;4.55;;
15968;SDS011;8085;53.472;9.794;2023-11-19T07:57:05;35.47;;;3.78;;
15968;SDS011;8085;53.472;9.794;2023-11-19T07:59:32;38.75;;;5.20;;
15968;SDS011;8085;53.472;9.794;2023-11-19T08:01:59;28.33;;;4.10;;
15968;SDS011;8085;53.472;9.794;2023-11-19T08:04:26;29.27;;;4.10;;
15968;SDS011;8085;53.472;9.794;2023-11-19T08:06:53;38.40;;;3.72;;
15968;SDS011;8085;53.472;9.794;2023-11-19T08:09:21;39.92;;;5.85;;
15968;SDS011;8085;53.472;9.794;2023-11-19T08:11:48;30.92;;;4.28;;
15968;SDS011;8085;53.472;9.794;2023-11-19T08:14:15;32.70;;;4.07;;
15968;SDS011;8085;53.472;9.794;2023-11-19T08:16:42;32.95;;;4.32;;
15968;SDS011;8085;53.472;9.794;2023-11-19T08:19:08;43.65;;;4.45;;
15968;SDS011;8085;53.472;9.794;2023-11-19T08:21:35;29.60;;;3.22;;
15968;SDS011;8085;53.472;9.794;2023-11-19T08:24:06;35.55;;;3.92;;
15968;SDS011;8085;53.472;9.794;2023-11-19T08:26:37;28.40;;;3.70;;
15968;SDS011;8085;53.472;9.794;2023-11-19T08:29:05;38.67;;;3.83;;
15968;SDS011;8085;53.472;9.794;2023-11-19T08:31:32;35.90;;;3.78;;
15968;SDS011;8085;53.472;9.794;2023-11-19T08:34:00;35.75;;;3.95;;
15968;SDS011;8085;53.472;9.794;2023-11-19T08:36:27;41.60;;;3.92;;
15968;SDS011;8085;53.472;9.794;2023-11-19T08:38:56;27.30;;;3.75;;
15968;SDS011;8085;53.472;9.794;2023-11-19T08:41:23;37.38;;;3.63;;
15968;SDS011;8085;53.472;9.794;2023-11-19T08:43:58;30.50;;;3.60;;
15968;SDS011;8085;53.472;9.794;2023-11-19T08:46:28;41.97;;;4.57;;
15968;SDS011;8085;53.472;9.794;2023-11-19T08:49:03;34.13;;;3.42;;
15968;SDS011;8085;53.472;9.794;2023-11-19T08:51:30;26.10;;;4.05;;
15968;SDS011;8085;53.472;9.794;2023-11-19T08:54:11;38.67;;;4.00;;
15968;SDS011;8085;53.472;9.794;2023-11-19T08:56:39;33.33;;;4.15;;
15968;SDS011;8085;53.472;9.794;2023-11-19T08:59:10;30.60;;;3.63;;
15968;SDS011;8085;53.472;9.794;2023-11-19T09:01:38;26.55;;;3.40;;
15968;SDS011;8085;53.472;9.794;2023-11-19T09:04:09;29.95;;;3.55;;
15968;SDS011;8085;53.472;9.794;2023-11-19T09:06:37;39.60;;;3.70;;
15968;SDS011;8085;53.472;9.794;2023-11-19T09:09:07;31.50;;;3.28;;
15968;SDS011;8085;53.472;9.794;2023-11-19T09:11:34;33.10;;;3.40;;
15968;SDS011;8085;53.472;9.794;2023-11-19T09:14:02;29.30;;;3.47;;
15968;SDS011;8085;53.472;9.794;2023-11-19T09:16:33;34.90;;;3.63;;
15968;SDS011;8085;53.472;9.794;2023-11-19T09:19:15;42.35;;;3.83;;
15968;SDS011;8085;53.472;9.794;2023-11-19T09:21:45;29.60;;;3.40;;
15968;SDS011;8085;53.472;9.794;2023-11-19T09:24:21;36.22;;;3.78;;
15968;SDS011;8085;53.472;9.794;2023-11-19T09:26:53;45.83;;;4.25;;
15968;SDS011;8085;53.472;9.794;2023-11-19T09:29:22;42.50;;;4.78;;
15968;SDS011;8085;53.472;9.794;2023-11-19T09:31:51;32.35;;;3.78;;
15968;SDS011;8085;53.472;9.794;2023-11-19T09:34:18;40.45;;;4.07;;
15968;SDS011;8085;53.472;9.794;2023-11-19T09:36:45;30.38;;;3.45;;
15968;SDS011;8085;53.472;9.794;2023-11-19T09:39:12;52.17;;;4.80;;
15968;SDS011;8085;53.472;9.794;2023-11-19T09:44:23;37.55;;;3.65;;
15968;SDS011;8085;53.472;9.794;2023-11-19T09:46:54;28.25;;;3.22;;
15968;SDS011;8085;53.472;9.794;2023-11-19T09:49:23;40.10;;;4.05;;
15968;SDS011;8085;53.472;9.794;2023-11-19T09:51:55;36.05;;;3.85;;
15968;SDS011;8085;53.472;9.794;2023-11-19T09:54:24;36.55;;;3.85;;
15968;SDS011;8085;53.472;9.794;2023-11-19T09:56:51;40.95;;;3.88;;
15968;SDS011;8085;53.472;9.794;2023-11-19T09:59:18;33.65;;;4.63;;
15968;SDS011;8085;53.472;9.794;2023-11-19T10:01:45;34.17;;;3.72;;
15968;SDS011;8085;53.472;9.794;2023-11-19T10:04:18;34.47;;;3.20;;
15968;SDS011;8085;53.472;9.794;2023-11-19T10:06:46;30.10;;;3.35;;
15968;SDS011;8085;53.472;9.794;2023-11-19T10:09:13;36.65;;;3.92;;
15968;SDS011;8085;53.472;9.794;2023-11-19T10:11:41;26.25;;;2.83;;
15968;SDS011;8085;53.472;9.794;2023-11-19T10:14:08;40.28;;;4.55;;
15968;SDS011;8085;53.472;9.794;2023-11-19T10:16:35;30.17;;;3.35;;
15968;SDS011;8085;53.472;9.794;2023-11-19T10:19:04;38.20;;;3.50;;
15968;SDS011;8085;53.472;9.794;2023-11-19T10:21:35;29.23;;;3.42;;
15968;SDS011;8085;53.472;9.794;2023-11-19T10:24:02;32.35;;;3.58;;
15968;SDS011;8085;53.472;9.794;2023-11-19T10:26:30;31.88;;;3.55;;
15968;SDS011;8085;53.472;9.794;2023-11-19T10:29:01;34.28;;;3.83;;
15968;SDS011;8085;53.472;9.794;2023-11-19T10:31:29;37.88;;;3.22;;
15968;SDS011;8085;53.472;9.794;2023-11-19T10:33:56;33.80;;;3.25;;
15968;SDS011;8085;53.472;9.794;2023-11-19T10:36:23;32.15;;;3.42;;
15968;SDS011;8085;53.472;9.794;2023-11-19T10:39:06;25.65;;;2.72;;
15968;SDS011;8085;53.472;9.794;2023-11-19T10:41:34;28.50;;;3.17;;
15968;SDS011;8085;53.472;9.794;2023-11-19T10:44:01;30.55;;;3.00;;
15968;SDS011;8085;53.472;9.794;2023-11-19T10:46:37;35.97;;;3.67;;
15968;SDS011;8085;53.472;9.794;2023-11-19T10:49:09;30.65;;;3.35;;
15968;SDS011;8085;53.472;9.794;2023-11-19T10:51:36;33.65;;;3.50;;
15968;SDS011;8085;53.472;9.794;2023-11-19T10:54:06;29.48;;;3.50;;
15968;SDS011;8085;53.472;9.794;2023-11-19T10:56:37;29.52;;;3.15;;
15968;SDS011;8085;53.472;9.794;2023-11-19T10:59:08;30.98;;;3.20;;
15968;SDS011;8085;53.472;9.794;2023-11-19T11:01:48;31.60;;;3.25;;
15968;SDS011;8085;53.472;9.794;2023-11-19T11:04:21;25.60;;;3.03;;
15968;SDS011;8085;53.472;9.794;2023-11-19T11:06:50;38.40;;;3.63;;
15968;SDS011;8085;53.472;9.794;2023-11-19T11:09:19;26.48;;;2.85;;
15968;SDS011;8085;53.472;9.794;2023-11-19T11:11:47;28.98;;;3.65;;
15968;SDS011;8085;53.472;9.794;2023-11-19T11:14:16;36.00;;;3.40;;
15968;SDS011;8085;53.472;9.794;2023-11-19T11:16:48;36.58;;;3.35;;
15968;SDS011;8085;53.472;9.794;2023-11-19T11:19:17;35.97;;;3.50;;
15968;SDS011;8085;53.472;9.794;2023-11-19T11:21:45;37.60;;;3.70;;
15968;SDS011;8085;53.472;9.794;2023-11-19T11:24:20;35.70;;;3.13;;
15968;SDS011;8085;53.472;9.794;2023-11-19T11:27:13;27.60;;;3.30;;
15968;SDS011;8085;53.472;9.794;2023-11-19T11:30:00;32.85;;;3.70;;
15968;SDS011;8085;53.472;9.794;2023-11-19T11:32:39;35.75;;;3.65;;
15968;SDS011;8085;53.472;9.794;2023-11-19T11:35:17;33.08;;;3.65;;
15968;SDS011;8085;53.472;9.794;2023-11-19T11:37:54;34.05;;;3.72;;
15968;SDS011;8085;53.472;9.794;2023-11-19T11:40:28;25.50;;;4.13;;
15968;SDS011;8085;53.472;9.794;2023-11-19T11:42:54;33.90;;;4.22;;
15968;SDS011;8085;53.472;9.794;2023-11-19T11:45:34;34.40;;;4.47;;
15968;SDS011;8085;53.472;9.794;2023-11-19T11:48:06;24.90;;;3.10;;
15968;SDS011;8085;53.472;9.794;2023-11-19T11:50:47;29.42;;;3.17;;
15968;SDS011;8085;53.472;9.794;2023-11-19T11:53:18;27.77;;;3.60;;
15968;SDS011;8085;53.472;9.794;2023-11-19T11:55:56;33.90;;;4.32;;
15968;SDS011;8085;53.472;9.794;2023-11-19T11:58:34;26.73;;;3.78;;
15968;SDS011;8085;53.472;9.794;2023-11-19T12:01:04;25.23;;;3.10;;
15968;SDS011;8085;53.472;9.794;2023-11-19T12:03:34;26.50;;;3.08;;
15968;SDS011;8085;53.472;9.794;2023-11-19T12:06:03;26.58;;;3.10;;
15968;SDS011;8085;53.472;9.794;2023-11-19T12:08:31;30.63;;;4.00;;
15968;SDS011;8085;53.472;9.794;2023-11-19T12:11:03;29.45;;;3.25;;
15968;SDS011;8085;53.472;9.794;2023-11-19T12:13:46;26.52;;;3.53;;
15968;SDS011;8085;53.472;9.794;2023-11-19T12:16:14;32.95;;;3.55;;
15968;SDS011;8085;53.472;9.794;2023-11-19T12:18:41;34.70;;;3.72;;
15968;SDS011;8085;53.472;9.794;2023-11-19T12:21:08;28.50;;;4.30;;
15968;SDS011;8085;53.472;9.794;2023-11-19T12:23:44;28.20;;;3.38;;
15968;SDS011;8085;53.472;9.794;2023-11-19T12:29:04;31.63;;;3.50;;
15968;SDS011;8085;53.472;9.794;2023-11-19T12:31:32;29.15;;;3.38;;
15968;SDS011;8085;53.472;9.794;2023-11-19T12:34:04;22.17;;;2.97;;
15968;SDS011;8085;53.472;9.794;2023-11-19T12:36:36;27.30;;;2.63;;
15968;SDS011;8085;53.472;9.794;2023-11-19T12:39:04;33.38;;;3.45;;
15968;SDS011;8085;53.472;9.794;2023-11-19T12:41:31;24.50;;;2.80;;
15968;SDS011;8085;53.472;9.794;2023-11-19T12:44:10;26.73;;;3.15;;
15968;SDS011;8085;53.472;9.794;2023-11-19T12:46:37;30.23;;;3.92;;
15968;SDS011;8085;53.472;9.794;2023-11-19T12:49:04;27.65;;;3.53;;
15968;SDS011;8085;53.472;9.794;2023-11-19T12:51:31;29.05;;;3.70;;
15968;SDS011;8085;53.472;9.794;2023-11-19T12:53:58;26.23;;;2.72;;
15968;SDS011;8085;53.472;9.794;2023-11-19T12:56:25;27.88;;;3.03;;
15968;SDS011;8085;53.472;9.794;2023-11-19T12:58:52;26.20;;;3.38;;
15968;SDS011;8085;53.472;9.794;2023-11-19T13:01:20;26.02;;;3.70;;
15968;SDS011;8085;53.472;9.794;2023-11-19T13:03:47;23.60;;;2.90;;
15968;SDS011;8085;53.472;9.794;2023-11-19T13:06:16;28.45;;;3.22;;
15968;SDS011;8085;53.472;9.794;2023-11-19T13:08:46;32.25;;;4.55;;
15968;SDS011;8085;53.472;9.794;2023-11-19T13:11:29;24.10;;;2.80;;
15968;SDS011;8085;53.472;9.794;2023-11-19T13:13:57;27.50;;;2.50;;
15968;SDS011;8085;53.472;9.794;2023-11-19T13:16:26;23.88;;;2.83;;
15968;SDS011;8085;53.472;9.794;2023-11-19T13:19:11;29.90;;;3.55;;
15968;SDS011;8085;53.472;9.794;2023-11-19T13:21:40;30.35;;;3.25;;
15968;SDS011;8085;53.472;9.794;2023-11-19T13:24:16;25.08;;;3.03;;
15968;SDS011;8085;53.472;9.794;2023-11-19T13:26:58;23.55;;;3.60;;
15968;SDS011;8085;53.472;9.794;2023-11-19T13:29:25;22.42;;;3.13;;
15968;SDS011;8085;53.472;9.794;2023-11-19T13:31:54;21.42;;;2.60;;
15968;SDS011;8085;53.472;9.794;2023-11-19T13:34:20;30.33;;;3.28;;
15968;SDS011;8085;53.472;9.794;2023-11-19T13:36:47;23.05;;;2.63;;
15968;SDS011;8085;53.472;9.794;2023-11-19T13:39:15;26.65;;;2.80;;
15968;SDS011;8085;53.472;9.794;2023-11-19T13:42:11;23.88;;;2.75;;
15968;SDS011;8085;53.472;9.794;2023-11-19T13:44:58;19.85;;;2.63;;
15968;SDS011;8085;53.472;9.794;2023-11-19T13:47:27;21.27;;;2.83;;
15968;SDS011;8085;53.472;9.794;2023-11-19T13:49:54;22.38;;;3.00;;
15968;SDS011;8085;53.472;9.794;2023-11-19T13:52:36;21.20;;;2.63;;
15968;SDS011;8085;53.472;9.794;2023-11-19T13:55:07;21.80;;;2.83;;
15968;SDS011;8085;53.472;9.794;2023-11-19T13:57:39;24.60;;;2.58;;
15968;SDS011;8085;53.472;9.794;2023-11-19T14:00:08;21.52;;;2.33;;
15968;SDS011;8085;53.472;9.794;2023-11-19T14:02:40;22.02;;;2.55;;
15968;SDS011;8085;53.472;9.794;2023-11-19T14:05:07;19.10;;;2.78;;
15968;SDS011;8085;53.472;9.794;2023-11-19T14:07:34;16.38;;;2.47;;
15968;SDS011;8085;53.472;9.794;2023-11-19T14:10:01;16.15;;;2.28;;
15968;SDS011;8085;53.472;9.794;2023-11-19T14:12:30;17.50;;;3.00;;
15968;SDS011;8085;53.472;9.794;2023-11-19T14:14:57;21.38;;;2.67;;
15968;SDS011;8085;53.472;9.794;2023-11-19T14:17:25;16.98;;;2.25;;
15968;SDS011;8085;53.472;9.794;2023-11-19T14:19:53;15.65;;;2.20;;
15968;SDS011;8085;53.472;9.794;2023-11-19T14:22:20;16.75;;;2.85;;
15968;SDS011;8085;53.472;9.794;2023-11-19T14:24:48;15.45;;;2.28;;
15968;SDS011;8085;53.472;9.794;2023-11-19T14:27:15;17.65;;;2.20;;
15968;SDS011;8085;53.472;9.794;2023-11-19T14:29:44;19.08;;;2.47;;
15968;SDS011;8085;53.472;9.794;2023-11-19T14:32:11;17.20;;;2.13;;
15968;SDS011;8085;53.472;9.794;2023-11-19T14:34:38;19.27;;;2.60;;
15968;SDS011;8085;53.472;9.794;2023-11-19T14:39:39;19.40;;;2.40;;
15968;SDS011;8085;53.472;9.794;2023-11-19T14:42:06;24.33;;;3.53;;
15968;SDS011;8085;53.472;9.794;2023-11-19T14:44:33;17.15;;;2.08;;
15968;SDS011;8085;53.472;9.794;2023-11-19T14:47:01;17.67;;;3.10;;
15968;SDS011;8085;53.472;9.794;2023-11-19T14:49:34;22.77;;;2.80;;
15968;SDS011;8085;53.472;9.794;2023-11-19T14:52:02;21.30;;;2.50;;
15968;SDS011;8085;53.472;9.794;2023-11-19T14:54:30;19.17;;;2.85;;
15968;SDS011;8085;53.472;9.794;2023-11-19T14:56:57;14.90;;;2.15;;
15968;SDS011;8085;53.472;9.794;2023-11-19T14:59:24;18.55;;;2.42;;
15968;SDS011;8085;53.472;9.794;2023-11-19T15:01:53;15.23;;;1.80;;
15968;SDS011;8085;53.472;9.794;2023-11-19T15:04:19;15.40;;;2.00;;
15968;SDS011;8085;53.472;9.794;2023-11-19T15:09:17;16.80;;;3.13;;
15968;SDS011;8085;53.472;9.794;2023-11-19T15:11:47;14.77;;;2.10;;
15968;SDS011;8085;53.472;9.794;2023-11-19T15:14:14;20.83;;;2.20;;